sensor_id;sensor_type;location;lat;lon;timestamp;P1;durP1;ratioP1;P2;durP2;ratioP2
83290;SDS011;73860;48.866;9.316;2024-03-02T00:02:48;14.60;;;9.20;;
83290;SDS011;73860;48.866;9.316;2024-03-02T00:05:18;17.20;;;10.60;;
83290;SDS011;73860;48.866;9.316;2024-03-02T00:07:52;15.90;;;10.30;;
83290;SDS011;73860;48.866;9.316;2024-03-02T00:10:24;14.70;;;9.50;;
83290;SDS011;73860;48.866;9.316;2024-03-02T00:12:55;15.90;;;9.20;;
83290;SDS011;73860;48.866;9.316;2024-03-02T00:15:34;17.10;;;9.90;;
83290;SDS011;73860;48.866;9.316;2024-03-02T00:18:12;14.60;;;9.60;;
83290;SDS011;73860;48.866;9.316;2024-03-02T00:20:42;17.30;;;9.90;;
83290;SDS011;73860;48.866;9.316;2024-03-02T00:23:13;15.10;;;10.30;;
83290;SDS011;73860;48.866;9.316;2024-03-02T00:25:44;14.60;;;9.60;;
83290;SDS011;73860;48.866;9.316;2024-03-02T00:28:16;14.50;;;9.90;;
83290;SDS011;73860;48.866;9.316;2024-03-02T00:30:54;13.30;;;9.00;;
83290;SDS011;73860;48.866;9.316;2024-03-02T00:33:26;14.80;;;9.20;;
83290;SDS011;73860;48.866;9.316;2024-03-02T00:35:57;13.10;;;8.20;;
83290;SDS011;73860;48.866;9.316;2024-03-02T00:38:27;15.20;;;9.90;;
83290;SDS011;73860;48.866;9.316;2024-03-02T00:40:57;13.10;;;8.40;;
83290;SDS011;73860;48.866;9.316;2024-03-02T00:46:15;13.80;;;8.90;;
83290;SDS011;73860;48.866;9.316;2024-03-02T00:48:51;14.50;;;9.20;;
83290;SDS011;73860;48.866;9.316;2024-03-02T00:51:22;15.00;;;9.70;;
83290;SDS011;73860;48.866;9.316;2024-03-02T00:53:52;14.80;;;9.00;;
83290;SDS011;73860;48.866;9.316;2024-03-02T00:56:23;18.20;;;10.00;;
83290;SDS011;73860;48.866;9.316;2024-03-02T00:58:52;16.00;;;10.30;;
83290;SDS011;73860;48.866;9.316;2024-03-02T01:01:22;17.70;;;10.50;;
83290;SDS011;73860;48.866;9.316;2024-03-02T01:03:51;15.40;;;9.60;;
83290;SDS011;73860;48.866;9.316;2024-03-02T01:06:21;14.80;;;8.50;;
83290;SDS011;73860;48.866;9.316;2024-03-02T01:08:50;16.40;;;9.60;;
83290;SDS011;73860;48.866;9.316;2024-03-02T01:11:19;13.90;;;8.70;;
83290;SDS011;73860;48.866;9.316;2024-03-02T01:13:49;15.10;;;9.50;;
83290;SDS011;73860;48.866;9.316;2024-03-02T01:16:19;15.70;;;9.90;;
83290;SDS011;73860;48.866;9.316;2024-03-02T01:18:48;14.50;;;9.50;;
83290;SDS011;73860;48.866;9.316;2024-03-02T01:21:17;14.00;;;9.00;;
83290;SDS011;73860;48.866;9.316;2024-03-02T01:23:47;15.10;;;9.30;;
83290;SDS011;73860;48.866;9.316;2024-03-02T01:26:16;15.40;;;9.00;;
83290;SDS011;73860;48.866;9.316;2024-03-02T01:28:45;15.10;;;10.00;;
83290;SDS011;73860;48.866;9.316;2024-03-02T01:31:15;14.80;;;9.80;;
83290;SDS011;73860;48.866;9.316;2024-03-02T01:33:44;14.90;;;9.50;;
83290;SDS011;73860;48.866;9.316;2024-03-02T01:36:13;14.50;;;9.20;;
83290;SDS011;73860;48.866;9.316;2024-03-02T01:38:42;14.10;;;8.90;;
83290;SDS011;73860;48.866;9.316;2024-03-02T01:41:12;15.10;;;9.10;;
83290;SDS011;73860;48.866;9.316;2024-03-02T01:43:41;13.10;;;8.50;;
83290;SDS011;73860;48.866;9.316;2024-03-02T01:46:10;13.10;;;8.40;;
83290;SDS011;73860;48.866;9.316;2024-03-02T01:48:39;15.50;;;9.10;;
83290;SDS011;73860;48.866;9.316;2024-03-02T01:51:08;15.10;;;8.80;;
83290;SDS011;73860;48.866;9.316;2024-03-02T01:53:38;15.80;;;8.80;;
83290;SDS011;73860;48.866;9.316;2024-03-02T01:56:07;14.00;;;9.10;;
83290;SDS011;73860;48.866;9.316;2024-03-02T01:58:37;16.90;;;9.20;;
83290;SDS011;73860;48.866;9.316;2024-03-02T02:01:06;14.70;;;9.10;;
83290;SDS011;73860;48.866;9.316;2024-03-02T02:03:36;14.50;;;8.20;;
83290;SDS011;73860;48.866;9.316;2024-03-02T02:06:07;14.80;;;8.90;;
83290;SDS011;73860;48.866;9.316;2024-03-02T02:08:37;15.90;;;9.40;;
83290;SDS011;73860;48.866;9.316;2024-03-02T02:11:07;16.10;;;8.90;;
83290;SDS011;73860;48.866;9.316;2024-03-02T02:13:36;15.10;;;9.70;;
83290;SDS011;73860;48.866;9.316;2024-03-02T02:16:06;15.60;;;8.90;;
83290;SDS011;73860;48.866;9.316;2024-03-02T02:18:36;15.50;;;8.30;;
83290;SDS011;73860;48.866;9.316;2024-03-02T02:21:05;14.40;;;8.60;;
83290;SDS011;73860;48.866;9.316;2024-03-02T02:23:34;15.80;;;8.70;;
83290;SDS011;73860;48.866;9.316;2024-03-02T02:26:04;14.00;;;8.20;;
83290;SDS011;73860;48.866;9.316;2024-03-02T02:28:33;16.40;;;9.00;;
83290;SDS011;73860;48.866;9.316;2024-03-02T02:31:02;15.70;;;9.20;;
83290;SDS011;73860;48.866;9.316;2024-03-02T02:33:31;15.40;;;9.90;;
83290;SDS011;73860;48.866;9.316;2024-03-02T02:36:01;14.80;;;8.70;;
83290;SDS011;73860;48.866;9.316;2024-03-02T02:38:31;15.00;;;8.30;;
83290;SDS011;73860;48.866;9.316;2024-03-02T02:41:02;14.60;;;8.60;;
83290;SDS011;73860;48.866;9.316;2024-03-02T02:43:31;16.80;;;9.10;;
83290;SDS011;73860;48.866;9.316;2024-03-02T02:46:01;14.20;;;9.00;;
83290;SDS011;73860;48.866;9.316;2024-03-02T02:48:30;14.00;;;8.50;;
83290;SDS011;73860;48.866;9.316;2024-03-02T02:50:59;15.50;;;9.50;;
83290;SDS011;73860;48.866;9.316;2024-03-02T02:53:28;14.00;;;8.30;;
83290;SDS011;73860;48.866;9.316;2024-03-02T02:55:58;13.70;;;8.70;;
83290;SDS011;73860;48.866;9.316;2024-03-02T02:58:27;16.00;;;9.10;;
83290;SDS011;73860;48.866;9.316;2024-03-02T03:00:56;13.70;;;9.20;;
83290;SDS011;73860;48.866;9.316;2024-03-02T03:03:25;16.00;;;8.00;;
83290;SDS011;73860;48.866;9.316;2024-03-02T03:05:54;15.20;;;8.00;;
83290;SDS011;73860;48.866;9.316;2024-03-02T03:08:24;15.80;;;8.60;;
83290;SDS011;73860;48.866;9.316;2024-03-02T03:10:53;15.10;;;8.80;;
83290;SDS011;73860;48.866;9.316;2024-03-02T03:13:22;13.80;;;8.00;;
83290;SDS011;73860;48.866;9.316;2024-03-02T03:15:52;16.00;;;10.00;;
83290;SDS011;73860;48.866;9.316;2024-03-02T03:18:21;14.70;;;8.90;;
83290;SDS011;73860;48.866;9.316;2024-03-02T03:20:50;14.50;;;9.50;;
83290;SDS011;73860;48.866;9.316;2024-03-02T03:23:19;16.10;;;9.60;;
83290;SDS011;73860;48.866;9.316;2024-03-02T03:25:48;17.00;;;9.80;;
83290;SDS011;73860;48.866;9.316;2024-03-02T03:28:18;15.70;;;9.00;;
83290;SDS011;73860;48.866;9.316;2024-03-02T03:30:47;15.60;;;9.10;;
83290;SDS011;73860;48.866;9.316;2024-03-02T03:33:16;15.30;;;9.40;;
83290;SDS011;73860;48.866;9.316;2024-03-02T03:35:45;13.90;;;8.70;;
83290;SDS011;73860;48.866;9.316;2024-03-02T03:38:14;16.50;;;9.80;;
83290;SDS011;73860;48.866;9.316;2024-03-02T03:40:44;15.40;;;9.40;;
83290;SDS011;73860;48.866;9.316;2024-03-02T03:43:14;14.70;;;9.10;;
83290;SDS011;73860;48.866;9.316;2024-03-02T03:45:43;14.20;;;8.30;;
83290;SDS011;73860;48.866;9.316;2024-03-02T03:48:12;15.30;;;9.20;;
83290;SDS011;73860;48.866;9.316;2024-03-02T03:50:41;17.50;;;9.80;;
83290;SDS011;73860;48.866;9.316;2024-03-02T03:53:11;18.20;;;10.00;;
83290;SDS011;73860;48.866;9.316;2024-03-02T03:55:41;16.30;;;9.00;;
83290;SDS011;73860;48.866;9.316;2024-03-02T03:58:13;14.40;;;7.00;;
83290;SDS011;73860;48.866;9.316;2024-03-02T04:00:42;13.50;;;8.00;;
83290;SDS011;73860;48.866;9.316;2024-03-02T04:03:12;17.30;;;8.30;;
83290;SDS011;73860;48.866;9.316;2024-03-02T04:05:41;15.50;;;9.00;;
83290;SDS011;73860;48.866;9.316;2024-03-02T04:08:10;16.30;;;9.00;;
83290;SDS011;73860;48.866;9.316;2024-03-02T04:10:39;14.00;;;9.10;;
83290;SDS011;73860;48.866;9.316;2024-03-02T04:13:09;16.70;;;10.00;;
83290;SDS011;73860;48.866;9.316;2024-03-02T04:15:38;14.70;;;8.40;;
83290;SDS011;73860;48.866;9.316;2024-03-02T04:18:08;14.70;;;8.60;;
83290;SDS011;73860;48.866;9.316;2024-03-02T04:20:38;16.70;;;9.60;;
83290;SDS011;73860;48.866;9.316;2024-03-02T04:23:07;17.50;;;10.10;;
83290;SDS011;73860;48.866;9.316;2024-03-02T04:25:36;15.80;;;9.00;;
83290;SDS011;73860;48.866;9.316;2024-03-02T04:28:05;15.00;;;8.40;;
83290;SDS011;73860;48.866;9.316;2024-03-02T04:30:34;15.40;;;8.60;;
83290;SDS011;73860;48.866;9.316;2024-03-02T04:33:04;15.40;;;8.90;;
83290;SDS011;73860;48.866;9.316;2024-03-02T04:35:36;16.00;;;8.90;;
83290;SDS011;73860;48.866;9.316;2024-03-02T04:38:05;15.90;;;8.40;;
83290;SDS011;73860;48.866;9.316;2024-03-02T04:40:34;16.80;;;8.80;;
83290;SDS011;73860;48.866;9.316;2024-03-02T04:43:04;13.70;;;8.70;;
83290;SDS011;73860;48.866;9.316;2024-03-02T04:45:35;15.60;;;9.30;;
83290;SDS011;73860;48.866;9.316;2024-03-02T04:48:06;16.20;;;8.60;;
83290;SDS011;73860;48.866;9.316;2024-03-02T04:50:36;15.20;;;9.00;;
83290;SDS011;73860;48.866;9.316;2024-03-02T04:53:05;18.80;;;10.10;;
83290;SDS011;73860;48.866;9.316;2024-03-02T04:55:34;20.70;;;11.60;;
83290;SDS011;73860;48.866;9.316;2024-03-02T04:58:30;19.10;;;10.40;;
83290;SDS011;73860;48.866;9.316;2024-03-02T05:00:59;17.10;;;8.70;;
83290;SDS011;73860;48.866;9.316;2024-03-02T05:03:28;15.90;;;9.60;;
83290;SDS011;73860;48.866;9.316;2024-03-02T05:05:57;18.20;;;11.20;;
83290;SDS011;73860;48.866;9.316;2024-03-02T05:08:26;18.50;;;10.70;;
83290;SDS011;73860;48.866;9.316;2024-03-02T05:10:56;19.90;;;11.90;;
83290;SDS011;73860;48.866;9.316;2024-03-02T05:13:45;19.10;;;11.20;;
83290;SDS011;73860;48.866;9.316;2024-03-02T05:16:14;18.30;;;9.70;;
83290;SDS011;73860;48.866;9.316;2024-03-02T05:18:43;18.30;;;10.20;;
83290;SDS011;73860;48.866;9.316;2024-03-02T05:21:13;18.50;;;10.10;;
83290;SDS011;73860;48.866;9.316;2024-03-02T05:23:42;18.60;;;9.30;;
83290;SDS011;73860;48.866;9.316;2024-03-02T05:26:11;18.10;;;9.70;;
83290;SDS011;73860;48.866;9.316;2024-03-02T05:28:40;16.10;;;10.20;;
83290;SDS011;73860;48.866;9.316;2024-03-02T05:31:11;17.30;;;10.50;;
83290;SDS011;73860;48.866;9.316;2024-03-02T05:33:40;15.60;;;8.90;;
83290;SDS011;73860;48.866;9.316;2024-03-02T05:36:09;23.40;;;13.30;;
83290;SDS011;73860;48.866;9.316;2024-03-02T05:38:39;33.90;;;20.10;;
83290;SDS011;73860;48.866;9.316;2024-03-02T05:41:09;21.20;;;12.30;;
83290;SDS011;73860;48.866;9.316;2024-03-02T05:43:38;21.90;;;13.30;;
83290;SDS011;73860;48.866;9.316;2024-03-02T05:46:07;28.80;;;17.10;;
83290;SDS011;73860;48.866;9.316;2024-03-02T05:48:36;29.40;;;18.20;;
83290;SDS011;73860;48.866;9.316;2024-03-02T05:51:06;26.00;;;14.80;;
83290;SDS011;73860;48.866;9.316;2024-03-02T05:53:35;22.50;;;12.60;;
83290;SDS011;73860;48.866;9.316;2024-03-02T05:56:05;16.70;;;9.60;;
83290;SDS011;73860;48.866;9.316;2024-03-02T05:58:35;19.60;;;11.30;;
83290;SDS011;73860;48.866;9.316;2024-03-02T06:01:19;19.10;;;11.20;;
83290;SDS011;73860;48.866;9.316;2024-03-02T06:03:54;23.90;;;12.40;;
83290;SDS011;73860;48.866;9.316;2024-03-02T06:06:25;23.90;;;12.40;;
83290;SDS011;73860;48.866;9.316;2024-03-02T06:08:54;22.80;;;11.70;;
83290;SDS011;73860;48.866;9.316;2024-03-02T06:11:25;22.20;;;11.60;;
83290;SDS011;73860;48.866;9.316;2024-03-02T06:13:54;21.80;;;12.00;;
83290;SDS011;73860;48.866;9.316;2024-03-02T06:16:23;23.40;;;11.60;;
83290;SDS011;73860;48.866;9.316;2024-03-02T06:18:52;23.10;;;12.20;;
83290;SDS011;73860;48.866;9.316;2024-03-02T06:21:24;24.20;;;12.80;;
83290;SDS011;73860;48.866;9.316;2024-03-02T06:23:53;24.00;;;13.10;;
83290;SDS011;73860;48.866;9.316;2024-03-02T06:26:23;22.30;;;11.40;;
83290;SDS011;73860;48.866;9.316;2024-03-02T06:28:52;23.50;;;12.10;;
83290;SDS011;73860;48.866;9.316;2024-03-02T06:31:21;21.60;;;11.80;;
83290;SDS011;73860;48.866;9.316;2024-03-02T06:33:51;22.20;;;11.70;;
83290;SDS011;73860;48.866;9.316;2024-03-02T06:36:20;22.70;;;11.70;;
83290;SDS011;73860;48.866;9.316;2024-03-02T06:38:49;19.20;;;11.20;;
83290;SDS011;73860;48.866;9.316;2024-03-02T06:41:18;20.10;;;10.60;;
83290;SDS011;73860;48.866;9.316;2024-03-02T06:43:48;21.30;;;10.80;;
83290;SDS011;73860;48.866;9.316;2024-03-02T06:46:20;17.30;;;9.90;;
83290;SDS011;73860;48.866;9.316;2024-03-02T06:48:50;18.90;;;10.60;;
83290;SDS011;73860;48.866;9.316;2024-03-02T06:51:19;20.70;;;11.30;;
83290;SDS011;73860;48.866;9.316;2024-03-02T06:53:48;19.10;;;10.00;;
83290;SDS011;73860;48.866;9.316;2024-03-02T06:56:17;23.00;;;14.20;;
83290;SDS011;73860;48.866;9.316;2024-03-02T06:58:47;24.80;;;15.70;;
83290;SDS011;73860;48.866;9.316;2024-03-02T07:01:16;40.40;;;26.30;;
83290;SDS011;73860;48.866;9.316;2024-03-02T07:03:46;31.40;;;19.90;;
83290;SDS011;73860;48.866;9.316;2024-03-02T07:06:16;26.30;;;14.00;;
83290;SDS011;73860;48.866;9.316;2024-03-02T07:08:45;19.50;;;11.60;;
83290;SDS011;73860;48.866;9.316;2024-03-02T07:11:14;21.40;;;11.60;;
83290;SDS011;73860;48.866;9.316;2024-03-02T07:13:43;21.20;;;11.80;;
83290;SDS011;73860;48.866;9.316;2024-03-02T07:16:13;21.10;;;10.80;;
83290;SDS011;73860;48.866;9.316;2024-03-02T07:18:59;21.10;;;12.20;;
83290;SDS011;73860;48.866;9.316;2024-03-02T07:21:28;17.80;;;10.10;;
83290;SDS011;73860;48.866;9.316;2024-03-02T07:23:59;17.50;;;10.00;;
83290;SDS011;73860;48.866;9.316;2024-03-02T07:26:29;17.20;;;10.20;;
83290;SDS011;73860;48.866;9.316;2024-03-02T07:28:58;18.30;;;10.90;;
83290;SDS011;73860;48.866;9.316;2024-03-02T07:31:28;18.30;;;10.60;;
83290;SDS011;73860;48.866;9.316;2024-03-02T07:33:57;17.90;;;10.40;;
83290;SDS011;73860;48.866;9.316;2024-03-02T07:36:26;16.20;;;10.50;;
83290;SDS011;73860;48.866;9.316;2024-03-02T07:38:55;17.40;;;10.00;;
83290;SDS011;73860;48.866;9.316;2024-03-02T07:41:25;19.40;;;12.00;;
83290;SDS011;73860;48.866;9.316;2024-03-02T07:43:54;18.50;;;11.60;;
83290;SDS011;73860;48.866;9.316;2024-03-02T07:46:23;18.20;;;10.60;;
83290;SDS011;73860;48.866;9.316;2024-03-02T07:48:53;17.70;;;10.70;;
83290;SDS011;73860;48.866;9.316;2024-03-02T07:51:22;15.10;;;9.30;;
83290;SDS011;73860;48.866;9.316;2024-03-02T07:53:52;15.40;;;8.70;;
83290;SDS011;73860;48.866;9.316;2024-03-02T07:56:22;15.40;;;9.10;;
83290;SDS011;73860;48.866;9.316;2024-03-02T07:58:51;15.50;;;8.30;;
83290;SDS011;73860;48.866;9.316;2024-03-02T08:01:20;15.40;;;8.00;;
83290;SDS011;73860;48.866;9.316;2024-03-02T08:03:49;13.80;;;7.80;;
83290;SDS011;73860;48.866;9.316;2024-03-02T08:06:19;14.70;;;8.30;;
83290;SDS011;73860;48.866;9.316;2024-03-02T08:08:48;13.70;;;8.30;;
83290;SDS011;73860;48.866;9.316;2024-03-02T08:11:17;14.90;;;7.40;;
83290;SDS011;73860;48.866;9.316;2024-03-02T08:13:47;13.70;;;8.00;;
83290;SDS011;73860;48.866;9.316;2024-03-02T08:16:16;14.20;;;8.20;;
83290;SDS011;73860;48.866;9.316;2024-03-02T08:18:46;12.00;;;7.20;;
83290;SDS011;73860;48.866;9.316;2024-03-02T08:21:15;11.90;;;6.90;;
83290;SDS011;73860;48.866;9.316;2024-03-02T08:23:45;14.30;;;9.20;;
83290;SDS011;73860;48.866;9.316;2024-03-02T08:26:14;18.90;;;12.10;;
83290;SDS011;73860;48.866;9.316;2024-03-02T08:28:44;15.60;;;9.40;;
83290;SDS011;73860;48.866;9.316;2024-03-02T08:31:13;14.50;;;8.90;;
83290;SDS011;73860;48.866;9.316;2024-03-02T08:33:43;16.50;;;9.90;;
83290;SDS011;73860;48.866;9.316;2024-03-02T08:36:12;16.60;;;9.30;;
83290;SDS011;73860;48.866;9.316;2024-03-02T08:38:42;11.00;;;6.30;;
83290;SDS011;73860;48.866;9.316;2024-03-02T08:41:11;13.30;;;7.20;;
83290;SDS011;73860;48.866;9.316;2024-03-02T08:43:42;12.20;;;6.30;;
83290;SDS011;73860;48.866;9.316;2024-03-02T08:46:12;10.80;;;5.90;;
83290;SDS011;73860;48.866;9.316;2024-03-02T08:48:41;10.10;;;5.00;;
83290;SDS011;73860;48.866;9.316;2024-03-02T08:51:10;11.60;;;5.50;;
83290;SDS011;73860;48.866;9.316;2024-03-02T08:53:40;9.70;;;5.10;;
83290;SDS011;73860;48.866;9.316;2024-03-02T08:56:10;11.60;;;6.00;;
83290;SDS011;73860;48.866;9.316;2024-03-02T08:58:39;9.90;;;5.50;;
83290;SDS011;73860;48.866;9.316;2024-03-02T09:01:08;10.20;;;5.80;;
83290;SDS011;73860;48.866;9.316;2024-03-02T09:03:38;10.80;;;6.50;;
83290;SDS011;73860;48.866;9.316;2024-03-02T09:06:07;11.40;;;5.90;;
83290;SDS011;73860;48.866;9.316;2024-03-02T09:08:36;10.30;;;5.50;;
83290;SDS011;73860;48.866;9.316;2024-03-02T09:11:06;10.60;;;6.30;;
83290;SDS011;73860;48.866;9.316;2024-03-02T09:13:35;10.50;;;5.50;;
83290;SDS011;73860;48.866;9.316;2024-03-02T09:16:05;9.70;;;5.20;;
83290;SDS011;73860;48.866;9.316;2024-03-02T09:18:37;8.60;;;4.60;;
83290;SDS011;73860;48.866;9.316;2024-03-02T09:21:06;9.30;;;4.80;;
83290;SDS011;73860;48.866;9.316;2024-03-02T09:23:36;8.60;;;4.40;;
83290;SDS011;73860;48.866;9.316;2024-03-02T09:26:06;8.10;;;3.50;;
83290;SDS011;73860;48.866;9.316;2024-03-02T09:28:35;7.90;;;4.30;;
83290;SDS011;73860;48.866;9.316;2024-03-02T09:31:05;9.10;;;4.60;;
83290;SDS011;73860;48.866;9.316;2024-03-02T09:33:34;8.00;;;4.10;;
83290;SDS011;73860;48.866;9.316;2024-03-02T09:36:04;7.50;;;3.60;;
83290;SDS011;73860;48.866;9.316;2024-03-02T09:38:38;7.50;;;3.50;;
83290;SDS011;73860;48.866;9.316;2024-03-02T09:41:07;7.60;;;4.00;;
83290;SDS011;73860;48.866;9.316;2024-03-02T09:43:37;7.70;;;3.60;;
83290;SDS011;73860;48.866;9.316;2024-03-02T09:46:06;8.20;;;3.70;;
83290;SDS011;73860;48.866;9.316;2024-03-02T09:48:38;7.20;;;3.60;;
83290;SDS011;73860;48.866;9.316;2024-03-02T09:51:07;7.10;;;3.60;;
83290;SDS011;73860;48.866;9.316;2024-03-02T09:53:37;7.60;;;3.80;;
83290;SDS011;73860;48.866;9.316;2024-03-02T09:56:07;8.20;;;3.90;;
83290;SDS011;73860;48.866;9.316;2024-03-02T09:58:36;7.10;;;3.60;;
83290;SDS011;73860;48.866;9.316;2024-03-02T10:01:08;8.00;;;3.40;;
83290;SDS011;73860;48.866;9.316;2024-03-02T10:03:37;7.00;;;3.30;;
83290;SDS011;73860;48.866;9.316;2024-03-02T10:06:19;7.80;;;3.90;;
83290;SDS011;73860;48.866;9.316;2024-03-02T10:08:50;5.90;;;3.00;;
83290;SDS011;73860;48.866;9.316;2024-03-02T10:11:29;5.60;;;2.70;;
83290;SDS011;73860;48.866;9.316;2024-03-02T10:14:05;6.60;;;2.90;;
83290;SDS011;73860;48.866;9.316;2024-03-02T10:16:36;5.70;;;2.70;;
83290;SDS011;73860;48.866;9.316;2024-03-02T10:19:18;6.20;;;2.70;;
83290;SDS011;73860;48.866;9.316;2024-03-02T10:21:49;6.30;;;2.80;;
83290;SDS011;73860;48.866;9.316;2024-03-02T10:24:19;6.60;;;2.80;;
83290;SDS011;73860;48.866;9.316;2024-03-02T10:26:49;6.00;;;2.50;;
83290;SDS011;73860;48.866;9.316;2024-03-02T10:29:19;6.30;;;2.50;;
83290;SDS011;73860;48.866;9.316;2024-03-02T10:31:48;5.30;;;2.30;;
83290;SDS011;73860;48.866;9.316;2024-03-02T10:34:17;4.70;;;2.10;;
83290;SDS011;73860;48.866;9.316;2024-03-02T10:36:47;5.10;;;2.00;;
83290;SDS011;73860;48.866;9.316;2024-03-02T10:39:16;4.60;;;1.90;;
83290;SDS011;73860;48.866;9.316;2024-03-02T10:41:46;6.30;;;2.40;;
83290;SDS011;73860;48.866;9.316;2024-03-02T10:46:46;4.70;;;1.90;;
83290;SDS011;73860;48.866;9.316;2024-03-02T10:49:16;4.30;;;1.60;;
83290;SDS011;73860;48.866;9.316;2024-03-02T10:51:46;4.50;;;1.60;;
83290;SDS011;73860;48.866;9.316;2024-03-02T10:54:15;3.40;;;1.50;;
83290;SDS011;73860;48.866;9.316;2024-03-02T10:56:52;3.40;;;1.50;;
83290;SDS011;73860;48.866;9.316;2024-03-02T10:59:26;5.50;;;2.10;;
83290;SDS011;73860;48.866;9.316;2024-03-02T11:01:57;5.30;;;2.20;;
83290;SDS011;73860;48.866;9.316;2024-03-02T11:04:28;4.80;;;1.60;;
83290;SDS011;73860;48.866;9.316;2024-03-02T11:06:59;3.60;;;1.60;;
83290;SDS011;73860;48.866;9.316;2024-03-02T11:09:31;2.80;;;1.20;;
83290;SDS011;73860;48.866;9.316;2024-03-02T11:14:34;3.30;;;1.40;;
83290;SDS011;73860;48.866;9.316;2024-03-02T11:17:09;3.40;;;1.40;;
83290;SDS011;73860;48.866;9.316;2024-03-02T11:19:42;3.40;;;1.30;;
83290;SDS011;73860;48.866;9.316;2024-03-02T11:22:12;3.20;;;1.20;;
83290;SDS011;73860;48.866;9.316;2024-03-02T11:24:48;3.00;;;1.40;;
83290;SDS011;73860;48.866;9.316;2024-03-02T11:33:26;2.80;;;1.20;;
83290;SDS011;73860;48.866;9.316;2024-03-02T11:35:57;3.50;;;1.20;;
83290;SDS011;73860;48.866;9.316;2024-03-02T11:38:29;3.00;;;1.10;;
83290;SDS011;73860;48.866;9.316;2024-03-02T11:41:00;3.40;;;1.40;;
83290;SDS011;73860;48.866;9.316;2024-03-02T11:43:30;2.20;;;1.10;;
83290;SDS011;73860;48.866;9.316;2024-03-02T11:46:00;2.40;;;1.00;;
83290;SDS011;73860;48.866;9.316;2024-03-02T11:48:33;3.00;;;1.10;;
83290;SDS011;73860;48.866;9.316;2024-03-02T11:51:04;2.50;;;1.00;;
83290;SDS011;73860;48.866;9.316;2024-03-02T11:53:34;2.80;;;1.00;;
83290;SDS011;73860;48.866;9.316;2024-03-02T11:56:04;2.70;;;1.10;;
83290;SDS011;73860;48.866;9.316;2024-03-02T11:58:35;2.20;;;0.80;;
83290;SDS011;73860;48.866;9.316;2024-03-02T12:01:05;1.70;;;0.80;;
83290;SDS011;73860;48.866;9.316;2024-03-02T12:03:34;2.50;;;0.90;;
83290;SDS011;73860;48.866;9.316;2024-03-02T12:06:04;2.50;;;0.70;;
83290;SDS011;73860;48.866;9.316;2024-03-02T12:08:34;3.10;;;1.10;;
83290;SDS011;73860;48.866;9.316;2024-03-02T12:11:03;2.50;;;0.90;;
83290;SDS011;73860;48.866;9.316;2024-03-02T12:13:33;2.20;;;0.90;;
83290;SDS011;73860;48.866;9.316;2024-03-02T12:16:03;2.20;;;0.90;;
83290;SDS011;73860;48.866;9.316;2024-03-02T12:18:33;2.20;;;0.60;;
83290;SDS011;73860;48.866;9.316;2024-03-02T12:21:03;1.90;;;0.80;;
83290;SDS011;73860;48.866;9.316;2024-03-02T12:23:35;1.90;;;0.70;;
83290;SDS011;73860;48.866;9.316;2024-03-02T12:26:05;1.30;;;0.70;;
83290;SDS011;73860;48.866;9.316;2024-03-02T12:28:36;1.70;;;0.70;;
83290;SDS011;73860;48.866;9.316;2024-03-02T12:31:05;2.10;;;0.70;;
83290;SDS011;73860;48.866;9.316;2024-03-02T12:33:35;1.50;;;0.60;;
83290;SDS011;73860;48.866;9.316;2024-03-02T12:36:05;1.40;;;0.70;;
83290;SDS011;73860;48.866;9.316;2024-03-02T12:38:42;2.90;;;0.90;;
83290;SDS011;73860;48.866;9.316;2024-03-02T12:41:15;2.60;;;1.00;;
83290;SDS011;73860;48.866;9.316;2024-03-02T12:43:44;2.80;;;1.30;;
83290;SDS011;73860;48.866;9.316;2024-03-02T12:46:14;2.80;;;0.90;;
83290;SDS011;73860;48.866;9.316;2024-03-02T12:48:43;1.10;;;0.60;;
83290;SDS011;73860;48.866;9.316;2024-03-02T12:51:12;1.40;;;0.70;;
83290;SDS011;73860;48.866;9.316;2024-03-02T12:53:42;2.50;;;0.80;;
83290;SDS011;73860;48.866;9.316;2024-03-02T12:56:11;1.20;;;0.50;;
83290;SDS011;73860;48.866;9.316;2024-03-02T12:58:41;2.00;;;0.70;;
83290;SDS011;73860;48.866;9.316;2024-03-02T13:01:10;2.70;;;0.80;;
83290;SDS011;73860;48.866;9.316;2024-03-02T13:03:45;1.60;;;0.90;;
83290;SDS011;73860;48.866;9.316;2024-03-02T13:06:17;2.00;;;0.80;;
83290;SDS011;73860;48.866;9.316;2024-03-02T13:08:47;3.10;;;0.80;;
83290;SDS011;73860;48.866;9.316;2024-03-02T13:11:16;0.80;;;0.50;;
83290;SDS011;73860;48.866;9.316;2024-03-02T13:13:46;3.50;;;0.90;;
83290;SDS011;73860;48.866;9.316;2024-03-02T13:16:16;5.40;;;2.80;;
83290;SDS011;73860;48.866;9.316;2024-03-02T13:18:46;2.90;;;0.80;;
83290;SDS011;73860;48.866;9.316;2024-03-02T13:21:16;2.50;;;1.20;;
83290;SDS011;73860;48.866;9.316;2024-03-02T13:23:46;4.20;;;1.90;;
83290;SDS011;73860;48.866;9.316;2024-03-02T13:26:15;1.80;;;0.90;;
83290;SDS011;73860;48.866;9.316;2024-03-02T13:28:44;1.70;;;0.70;;
83290;SDS011;73860;48.866;9.316;2024-03-02T13:31:14;1.90;;;0.80;;
83290;SDS011;73860;48.866;9.316;2024-03-02T13:33:43;2.00;;;0.80;;
83290;SDS011;73860;48.866;9.316;2024-03-02T13:36:13;1.60;;;0.80;;
83290;SDS011;73860;48.866;9.316;2024-03-02T13:38:42;2.10;;;1.00;;
83290;SDS011;73860;48.866;9.316;2024-03-02T13:41:11;1.50;;;0.80;;
83290;SDS011;73860;48.866;9.316;2024-03-02T13:43:41;3.00;;;1.60;;
83290;SDS011;73860;48.866;9.316;2024-03-02T13:46:11;3.80;;;1.80;;
83290;SDS011;73860;48.866;9.316;2024-03-02T13:48:41;2.70;;;1.10;;
83290;SDS011;73860;48.866;9.316;2024-03-02T13:51:10;2.00;;;0.80;;
83290;SDS011;73860;48.866;9.316;2024-03-02T13:53:39;1.40;;;0.70;;
83290;SDS011;73860;48.866;9.316;2024-03-02T13:56:09;3.00;;;1.10;;
83290;SDS011;73860;48.866;9.316;2024-03-02T13:58:38;1.80;;;0.90;;
83290;SDS011;73860;48.866;9.316;2024-03-02T14:01:08;2.70;;;1.00;;
83290;SDS011;73860;48.866;9.316;2024-03-02T14:03:38;2.10;;;0.80;;
83290;SDS011;73860;48.866;9.316;2024-03-02T14:06:08;2.30;;;0.80;;
83290;SDS011;73860;48.866;9.316;2024-03-02T14:08:39;1.90;;;0.80;;
83290;SDS011;73860;48.866;9.316;2024-03-02T14:11:11;1.80;;;0.80;;
83290;SDS011;73860;48.866;9.316;2024-03-02T14:13:42;1.50;;;0.70;;
83290;SDS011;73860;48.866;9.316;2024-03-02T14:16:16;4.00;;;1.00;;
83290;SDS011;73860;48.866;9.316;2024-03-02T14:18:46;2.00;;;0.90;;
83290;SDS011;73860;48.866;9.316;2024-03-02T14:21:16;1.90;;;0.90;;
83290;SDS011;73860;48.866;9.316;2024-03-02T14:23:46;1.80;;;0.60;;
83290;SDS011;73860;48.866;9.316;2024-03-02T14:26:16;1.90;;;0.70;;
83290;SDS011;73860;48.866;9.316;2024-03-02T14:28:46;2.10;;;1.00;;
83290;SDS011;73860;48.866;9.316;2024-03-02T14:31:16;1.60;;;0.80;;
83290;SDS011;73860;48.866;9.316;2024-03-02T14:33:47;2.00;;;1.00;;
83290;SDS011;73860;48.866;9.316;2024-03-02T14:36:17;1.80;;;0.80;;
83290;SDS011;73860;48.866;9.316;2024-03-02T14:38:47;1.80;;;0.80;;
83290;SDS011;73860;48.866;9.316;2024-03-02T14:41:18;2.10;;;0.90;;
83290;SDS011;73860;48.866;9.316;2024-03-02T14:43:48;3.30;;;0.70;;
83290;SDS011;73860;48.866;9.316;2024-03-02T14:46:18;1.20;;;0.60;;
83290;SDS011;73860;48.866;9.316;2024-03-02T14:48:49;1.70;;;0.70;;
83290;SDS011;73860;48.866;9.316;2024-03-02T14:51:19;1.20;;;0.70;;
83290;SDS011;73860;48.866;9.316;2024-03-02T14:53:49;2.50;;;0.80;;
83290;SDS011;73860;48.866;9.316;2024-03-02T14:56:20;2.10;;;0.70;;
83290;SDS011;73860;48.866;9.316;2024-03-02T14:58:51;1.60;;;0.60;;
83290;SDS011;73860;48.866;9.316;2024-03-02T15:01:20;1.80;;;0.60;;
83290;SDS011;73860;48.866;9.316;2024-03-02T15:03:51;1.80;;;0.70;;
83290;SDS011;73860;48.866;9.316;2024-03-02T15:06:21;1.50;;;0.60;;
83290;SDS011;73860;48.866;9.316;2024-03-02T15:08:52;2.60;;;0.60;;